Time;durP1;ratioP1;P1;durP2;ratioP2;P2;SDS_P1;SDS_P2;PMS_P1;PMS_P2;Temp;Humidity;BMP_temperature;BMP_pressure;BME280_temperature;BME280_humidity;BME280_pressure;Samples;Min_cycle;Max_cycle;Signal;HPM_P1;HPM_P2
2024/03/05 00:00:10;;;;;;;;;;;;;;;;;;4185975;28;20001;-59
2024/03/05 00:02:12;;;;;;;;;;;;;;;;;;4186128;28;19925;-59
2024/03/05 00:04:13;;;;;;;;;;;;;;;;;;4185922;28;19925;-59
2024/03/05 00:06:16;;;;;;;;;;;;;;;;;;4186344;28;19993;-59
2024/03/05 00:08:18;;;;;;;;;;;;;;;;;;4186295;28;19928;-59
2024/03/05 00:10:19;;;;;;;;;;;;;;;;;;4186208;28;19974;-59
2024/03/05 00:12:21;;;;;;;;;;;;;;;;;;4190331;28;19970;-58
2024/03/05 00:14:23;;;;;;;;;;;;;;;;;;4199468;28;19924;-59
2024/03/05 00:16:24;;;;;;;;;;;;;;;;;;4198582;28;19966;-57
2024/03/05 00:18:26;;;;;;;;;;;;;;;;;;4199867;28;19921;-58
2024/03/05 00:20:27;;;;;;;;;;;;;;;;;;4199964;28;20391;-60
2024/03/05 00:22:29;;;;;;;;;;;;;;;;;;4199822;28;19981;-59
2024/03/05 00:24:30;;;;;;;;;;;;;;;;;;4182006;28;19920;-59
2024/03/05 00:26:32;;;;;;;;;;;;;;;;;;4199766;28;19920;-59
2024/03/05 00:28:33;;;;;;;;;;;;;;;;;;4182145;28;19932;-59
2024/03/05 00:30:36;;;;;;;;;;;;;;;;;;4199623;28;20003;-59
2024/03/05 00:32:37;;;;;;;;;;;;;;;;;;4199615;28;19969;-58
2024/03/05 00:34:39;;;;;;;;;;;;;;;;;;4189922;28;19920;-58
2024/03/05 00:36:40;;;;;;;;;;;;;;;;;;4182990;28;20032;-59
2024/03/05 00:38:42;;;;;;;;;;;;;;;;;;4182942;28;19991;-59
2024/03/05 00:40:44;;;;;;;;;;;;;;;;;;4182915;28;19924;-59
2024/03/05 00:42:46;;;;;;;;;;;;;;;;;;4182775;28;19960;-59
2024/03/05 00:44:47;;;;;;;;;;;;;;;;;;4182718;28;19966;-59
2024/03/05 00:46:49;;;;;;;;;;;;;;;;;;4183301;28;20411;-57
2024/03/05 00:48:51;;;;;;;;;;;;;;;;;;4183097;28;19928;-57
2024/03/05 00:50:53;;;;;;;;;;;;;;;;;;4183061;28;19963;-57
2024/03/05 00:52:54;;;;;;;;;;;;;;;;;;4182774;28;19956;-57
2024/03/05 00:54:57;;;;;;;;;;;;;;;;;;4182955;28;19925;-57
2024/03/05 00:56:58;;;;;;;;;;;;;;;;;;4182732;28;19920;-57
2024/03/05 00:59:00;;;;;;;;;;;;;;;;;;4182956;28;19978;-58
2024/03/05 01:01:03;;;;;;;;;;;;;;;;;;4182711;28;19928;-57
2024/03/05 01:03:05;;;;;;;;;;;;;;;;;;4182666;28;20007;-57
2024/03/05 01:05:09;;;;;;;;;;;;;;;;;;4182381;28;19967;-57
2024/03/05 01:07:11;;;;;;;;;;;;;;;;;;4182662;28;19925;-57
2024/03/05 01:09:16;;;;;;;;;;;;;;;;;;4182865;28;19925;-57
2024/03/05 01:11:19;;;;;;;;;;;;;;;;;;4182557;28;19925;-57
2024/03/05 01:13:21;;;;;;;;;;;;;;;;;;4182530;28;19927;-57
2024/03/05 01:15:22;;;;;;;;;;;;;;;;;;4182481;28;19970;-57
2024/03/05 01:17:24;;;;;;;;;;;;;;;;;;4182749;28;20031;-57
2024/03/05 01:19:25;;;;;;;;;;;;;;;;;;4182592;28;19921;-58
2024/03/05 01:21:26;;;;;;;;;;;;;;;;;;4164899;28;19920;-57
2024/03/05 01:23:28;;;;;;;;;;;;;;;;;;4182272;28;20443;-57
2024/03/05 01:25:30;;;;;;;;;;;;;;;;;;4181999;28;19924;-56
2024/03/05 01:27:31;;;;;;;;;;;;;;;;;;4182304;28;19921;-57
2024/03/05 01:29:33;;;;;;;;;;;;;;;;;;4182270;28;20384;-57
2024/03/05 01:31:34;;;;;;;;;;;;;;;;;;4182122;28;19935;-57
2024/03/05 01:33:36;;;;;;;;;;;;;;;;;;4148025;28;20035;-57
2024/03/05 01:35:38;;;;;;;;;;;;;;;;;;4182335;28;19925;-57
2024/03/05 01:37:39;;;;;;;;;;;;;;;;;;4183861;28;19925;-58
2024/03/05 01:39:41;;;;;;;;;;;;;;;;;;4198542;28;19924;-57
2024/03/05 01:41:43;;;;;;;;;;;;;;;;;;4198828;28;20330;-57
2024/03/05 01:43:44;;;;;;;;;;;;;;;;;;4198598;28;19924;-57
2024/03/05 01:45:46;;;;;;;;;;;;;;;;;;4180907;28;19921;-57
2024/03/05 01:47:48;;;;;;;;;;;;;;;;;;4198761;28;20041;-57
2024/03/05 01:49:49;;;;;;;;;;;;;;;;;;4198711;28;19981;-57
2024/03/05 01:51:51;;;;;;;;;;;;;;;;;;4198441;28;20304;-57
2024/03/05 01:53:52;;;;;;;;;;;;;;;;;;4198393;28;19921;-58
2024/03/05 01:55:54;;;;;;;;;;;;;;;;;;4198329;28;19924;-56
2024/03/05 01:57:57;;;;;;;;;;;;;;;;;;4198061;28;19926;-57
2024/03/05 01:59:58;;;;;;;;;;;;;;;;;;4198330;28;20011;-57
2024/03/05 02:02:00;;;;;;;;;;;;;;;;;;4198329;28;19928;-57
2024/03/05 02:04:01;;;;;;;;;;;;;;;;;;4197938;28;20281;-57
2024/03/05 02:06:03;;;;;;;;;;;;;;;;;;4198060;28;19920;-57
2024/03/05 02:08:04;;;;;;;;;;;;;;;;;;4198297;28;19950;-57
2024/03/05 02:10:07;;;;;;;;;;;;;;;;;;4198066;28;19943;-57
2024/03/05 02:12:09;;;;;;;;;;;;;;;;;;4198342;28;19981;-57
2024/03/05 02:14:10;;;;;;;;;;;;;;;;;;4198213;28;19924;-57
2024/03/05 02:16:12;;;;;;;;;;;;;;;;;;4198054;28;19924;-57
2024/03/05 02:18:13;;;;;;;;;;;;;;;;;;4198076;28;19974;-56
2024/03/05 02:20:15;;;;;;;;;;;;;;;;;;4180211;28;19932;-57
2024/03/05 02:22:16;;;;;;;;;;;;;;;;;;4180321;28;20333;-56
2024/03/05 02:24:18;;;;;;;;;;;;;;;;;;4198164;28;19924;-57
2024/03/05 02:26:20;;;;;;;;;;;;;;;;;;4177697;28;19964;-57
2024/03/05 02:28:22;;;;;;;;;;;;;;;;;;4181375;28;19921;-57
2024/03/05 02:30:23;;;;;;;;;;;;;;;;;;4181562;28;19920;-57
2024/03/05 02:32:26;;;;;;;;;;;;;;;;;;4181219;28;19925;-57
2024/03/05 02:34:27;;;;;;;;;;;;;;;;;;4181328;28;19924;-57
2024/03/05 02:36:29;;;;;;;;;;;;;;;;;;4163112;28;19921;-57
2024/03/05 02:38:30;;;;;;;;;;;;;;;;;;4181200;28;20430;-57
2024/03/05 02:40:32;;;;;;;;;;;;;;;;;;4181458;28;19963;-57
2024/03/05 02:42:33;;;;;;;;;;;;;;;;;;4181251;28;19924;-57
2024/03/05 02:44:35;;;;;;;;;;;;;;;;;;4163517;28;19925;-57
2024/03/05 02:46:36;;;;;;;;;;;;;;;;;;4181211;28;19974;-57
2024/03/05 02:48:38;;;;;;;;;;;;;;;;;;4181131;28;20023;-57
2024/03/05 02:50:39;;;;;;;;;;;;;;;;;;4181423;28;19920;-57
2024/03/05 02:52:40;;;;;;;;;;;;;;;;;;4169140;28;19947;-57
2024/03/05 02:54:42;;;;;;;;;;;;;;;;;;4191549;28;19971;-57
2024/03/05 02:56:45;;;;;;;;;;;;;;;;;;4197943;28;20368;-56
2024/03/05 02:58:46;;;;;;;;;;;;;;;;;;4197865;28;20295;-57
2024/03/05 03:00:48;;;;;;;;;;;;;;;;;;4179742;28;19947;-57
2024/03/05 03:02:49;;;;;;;;;;;;;;;;;;4197512;28;19920;-57
2024/03/05 03:04:51;;;;;;;;;;;;;;;;;;4179601;28;20000;-57
2024/03/05 03:06:53;;;;;;;;;;;;;;;;;;4197922;28;19982;-57
2024/03/05 03:08:56;;;;;;;;;;;;;;;;;;4197474;28;19946;-57
2024/03/05 03:10:57;;;;;;;;;;;;;;;;;;4197463;28;19921;-58
2024/03/05 03:12:59;;;;;;;;;;;;;;;;;;4196949;28;20219;-57
2024/03/05 03:15:01;;;;;;;;;;;;;;;;;;4196577;28;19920;-57
2024/03/05 03:17:02;;;;;;;;;;;;;;;;;;4196928;28;19924;-57
2024/03/05 03:19:04;;;;;;;;;;;;;;;;;;4179325;28;20483;-57
2024/03/05 03:21:06;;;;;;;;;;;;;;;;;;4179028;28;19971;-57
2024/03/05 03:23:07;;;;;;;;;;;;;;;;;;4189634;28;20019;-57
2024/03/05 03:25:09;;;;;;;;;;;;;;;;;;4180441;28;19924;-57
2024/03/05 03:27:11;;;;;;;;;;;;;;;;;;4180371;28;19925;-57
2024/03/05 03:29:13;;;;;;;;;;;;;;;;;;4162658;28;20285;-57
2024/03/05 03:31:14;;;;;;;;;;;;;;;;;;4180755;28;19920;-57
2024/03/05 03:33:16;;;;;;;;;;;;;;;;;;4180884;28;19921;-56
2024/03/05 03:35:17;;;;;;;;;;;;;;;;;;4162930;28;19929;-57
2024/03/05 03:37:19;;;;;;;;;;;;;;;;;;4181058;28;19925;-57
2024/03/05 03:39:23;;;;;;;;;;;;;;;;;;4163094;28;19927;-56
2024/03/05 03:41:26;;;;;;;;;;;;;;;;;;4162985;28;19921;-57
2024/03/05 03:43:27;;;;;;;;;;;;;;;;;;4162983;28;19921;-57
2024/03/05 03:45:29;;;;;;;;;;;;;;;;;;4180891;28;19921;-57
2024/03/05 03:47:30;;;;;;;;;;;;;;;;;;4163075;28;20270;-57
2024/03/05 03:49:32;;;;;;;;;;;;;;;;;;4181951;28;19920;-56
2024/03/05 03:51:33;;;;;;;;;;;;;;;;;;4200378;28;20291;-57
2024/03/05 03:53:36;;;;;;;;;;;;;;;;;;4200241;28;20437;-57
2024/03/05 03:55:38;;;;;;;;;;;;;;;;;;4200534;28;19931;-57
2024/03/05 03:57:39;;;;;;;;;;;;;;;;;;4182510;28;20392;-57
2024/03/05 03:59:41;;;;;;;;;;;;;;;;;;4200484;28;19924;-57
2024/03/05 04:01:43;;;;;;;;;;;;;;;;;;4200084;28;19920;-57
2024/03/05 04:03:44;;;;;;;;;;;;;;;;;;4182261;28;20439;-57
2024/03/05 04:05:46;;;;;;;;;;;;;;;;;;4182150;28;20404;-57
2024/03/05 04:07:48;;;;;;;;;;;;;;;;;;4200003;28;19946;-57
2024/03/05 04:09:50;;;;;;;;;;;;;;;;;;4200065;28;19920;-57
2024/03/05 04:11:51;;;;;;;;;;;;;;;;;;4182278;28;19942;-57
2024/03/05 04:13:53;;;;;;;;;;;;;;;;;;4200000;28;20372;-57
2024/03/05 04:15:54;;;;;;;;;;;;;;;;;;4182409;28;19931;-57
2024/03/05 04:17:57;;;;;;;;;;;;;;;;;;4200141;28;19920;-57
2024/03/05 04:19:59;;;;;;;;;;;;;;;;;;4170103;28;19963;-57
2024/03/05 04:22:02;;;;;;;;;;;;;;;;;;4183625;28;19921;-57
2024/03/05 04:24:03;;;;;;;;;;;;;;;;;;4183374;28;20382;-57
2024/03/05 04:26:13;;;;;;;;;;;;;;;;;;4183218;28;20354;-57
2024/03/05 04:28:14;;;;;;;;;;;;;;;;;;4183428;28;19971;-57
2024/03/05 04:30:16;;;;;;;;;;;;;;;;;;4165794;28;20369;-57
2024/03/05 04:32:18;;;;;;;;;;;;;;;;;;4165343;28;19964;-57
2024/03/05 04:34:19;;;;;;;;;;;;;;;;;;4183583;28;19924;-57
2024/03/05 04:36:21;;;;;;;;;;;;;;;;;;4183440;28;20008;-57
2024/03/05 04:38:22;;;;;;;;;;;;;;;;;;4165523;28;20451;-57
2024/03/05 04:40:24;;;;;;;;;;;;;;;;;;4183200;28;19921;-57
2024/03/05 04:42:25;;;;;;;;;;;;;;;;;;4183379;28;19925;-57
2024/03/05 04:44:28;;;;;;;;;;;;;;;;;;4183051;28;20008;-56
2024/03/05 04:46:30;;;;;;;;;;;;;;;;;;4186155;28;19974;-57
2024/03/05 04:48:31;;;;;;;;;;;;;;;;;;4179357;28;19921;-57
2024/03/05 04:50:33;;;;;;;;;;;;;;;;;;4199450;28;19920;-57
2024/03/05 04:52:34;;;;;;;;;;;;;;;;;;4199581;28;20295;-57
2024/03/05 04:54:36;;;;;;;;;;;;;;;;;;4199655;28;19920;-57
2024/03/05 04:56:38;;;;;;;;;;;;;;;;;;4199931;28;19928;-57
2024/03/05 04:58:39;;;;;;;;;;;;;;;;;;4181810;28;19982;-56
2024/03/05 05:00:41;;;;;;;;;;;;;;;;;;4198504;28;20143;-57
2024/03/05 05:02:42;;;;;;;;;;;;;;;;;;4199308;28;19930;-56
2024/03/05 05:04:44;;;;;;;;;;;;;;;;;;4199055;28;19920;-56
2024/03/05 05:06:45;;;;;;;;;;;;;;;;;;4199201;28;19924;-57
2024/03/05 05:08:49;;;;;;;;;;;;;;;;;;4199516;28;19970;-57
2024/03/05 05:10:51;;;;;;;;;;;;;;;;;;4199374;28;19928;-56
2024/03/05 05:12:52;;;;;;;;;;;;;;;;;;4181710;28;19920;-56
2024/03/05 05:14:54;;;;;;;;;;;;;;;;;;4198165;28;19982;-57
2024/03/05 05:16:56;;;;;;;;;;;;;;;;;;4182659;28;19925;-56
2024/03/05 05:18:58;;;;;;;;;;;;;;;;;;4183597;28;20399;-56
2024/03/05 05:21:00;;;;;;;;;;;;;;;;;;4188090;28;19971;-56
2024/03/05 05:23:03;;;;;;;;;;;;;;;;;;4183777;28;19928;-57
2024/03/05 05:25:05;;;;;;;;;;;;;;;;;;4194585;28;20292;-56
2024/03/05 05:27:07;;;;;;;;;;;;;;;;;;4193778;28;19929;-57
2024/03/05 05:29:09;;;;;;;;;;;;;;;;;;4187247;28;19920;-56
2024/03/05 05:31:16;;;;;;;;;;;;;;;;;;4182284;28;20405;-56
2024/03/05 05:33:18;;;;;;;;;;;;;;;;;;4148136;28;19947;-57
2024/03/05 05:35:19;;;;;;;;;;;;;;;;;;4181975;28;19925;-56
2024/03/05 05:37:21;;;;;;;;;;;;;;;;;;4182535;28;19924;-56
2024/03/05 05:39:24;;;;;;;;;;;;;;;;;;4182138;28;20019;-57
2024/03/05 05:41:26;;;;;;;;;;;;;;;;;;4182083;28;19960;-56
2024/03/05 05:43:27;;;;;;;;;;;;;;;;;;4147857;28;19925;-57
2024/03/05 05:45:29;;;;;;;;;;;;;;;;;;4181778;28;20305;-56
2024/03/05 05:47:31;;;;;;;;;;;;;;;;;;4164258;28;20364;-57
2024/03/05 05:49:33;;;;;;;;;;;;;;;;;;4182125;28;19983;-57
2024/03/05 05:51:35;;;;;;;;;;;;;;;;;;4147917;28;19968;-57
2024/03/05 05:53:36;;;;;;;;;;;;;;;;;;4182616;28;19928;-56
2024/03/05 05:55:38;;;;;;;;;;;;;;;;;;4190891;28;19967;-56
2024/03/05 05:57:40;;;;;;;;;;;;;;;;;;4197603;28;19926;-57
2024/03/05 05:59:41;;;;;;;;;;;;;;;;;;4198392;28;19920;-57
2024/03/05 06:01:43;;;;;;;;;;;;;;;;;;4192584;28;19931;-57
2024/03/05 06:03:45;;;;;;;;;;;;;;;;;;4179845;28;19954;-57
2024/03/05 06:05:48;;;;;;;;;;;;;;;;;;4180388;28;19925;-57
2024/03/05 06:07:50;;;;;;;;;;;;;;;;;;4181361;28;19921;-57
2024/03/05 06:09:51;;;;;;;;;;;;;;;;;;4181246;28;19920;-57
2024/03/05 06:11:53;;;;;;;;;;;;;;;;;;4179953;28;20369;-56
2024/03/05 06:13:55;;;;;;;;;;;;;;;;;;4196817;28;19920;-56
2024/03/05 06:15:57;;;;;;;;;;;;;;;;;;4198062;28;19931;-57
2024/03/05 06:17:59;;;;;;;;;;;;;;;;;;4180072;28;19976;-57
2024/03/05 06:20:01;;;;;;;;;;;;;;;;;;4197986;28;20012;-57
2024/03/05 06:22:03;;;;;;;;;;;;;;;;;;4195418;28;20015;-56
2024/03/05 06:24:06;;;;;;;;;;;;;;;;;;4188271;28;19947;-58
2024/03/05 06:26:07;;;;;;;;;;;;;;;;;;4197387;28;19920;-62
2024/03/05 06:28:09;;;;;;;;;;;;;;;;;;4197427;28;19920;-63
2024/03/05 06:30:21;;;;;;;;;;;;;;;;;;4197671;28;19924;-62
2024/03/05 06:32:23;;;;;;;;;;;;;;;;;;4197649;28;19920;-63
2024/03/05 06:34:25;;;;;;;;;;;;;;;;;;4166122;28;20368;-63
2024/03/05 06:36:27;;;;;;;;;;;;;;;;;;4179649;28;19939;-62
2024/03/05 06:38:28;;;;;;;;;;;;;;;;;;4181029;28;19979;-65
2024/03/05 06:40:31;;;;;;;;;;;;;;;;;;4181080;28;19928;-65
2024/03/05 06:42:33;;;;;;;;;;;;;;;;;;4180826;28;20296;-65
2024/03/05 06:44:36;;;;;;;;;;;;;;;;;;4180725;28;20297;-65
2024/03/05 06:46:41;;;;;;;;;;;;;;;;;;4181036;28;19925;-66
2024/03/05 06:48:47;;;;;;;;;;;;;;;;;;4181134;28;19924;-66
2024/03/05 06:50:57;;;;;;;;;;;;;;;;;;4185057;28;19973;-65
2024/03/05 06:57:39;;;;;;;;;;;;;;;;;;4191530;28;19921;-66
2024/03/05 06:59:41;;;;;;;;;;;;;;;;;;4189328;28;20395;-65
2024/03/05 07:01:43;;;;;;;;;;;;;;;;;;4181971;28;19931;-66
2024/03/05 07:03:44;;;;;;;;;;;;;;;;;;4182439;28;19970;-66
2024/03/05 07:05:47;;;;;;;;;;;;;;;;;;4180348;28;19924;-65
2024/03/05 07:07:49;;;;;;;;;;;;;;;;;;4180849;28;20015;-65
2024/03/05 07:09:50;;;;;;;;;;;;;;;;;;4180824;28;20062;-66
2024/03/05 07:11:53;;;;;;;;;;;;;;;;;;4180731;28;19921;-66
2024/03/05 07:13:55;;;;;;;;;;;;;;;;;;4161234;28;19951;-65
2024/03/05 07:15:57;;;;;;;;;;;;;;;;;;4178689;28;19921;-65
2024/03/05 07:17:58;;;;;;;;;;;;;;;;;;4161453;28;19975;-66
2024/03/05 07:20:03;;;;;;;;;;;;;;;;;;4179963;28;19925;-65
2024/03/05 07:22:05;;;;;;;;;;;;;;;;;;4180769;28;19930;-66
2024/03/05 07:24:07;;;;;;;;;;;;;;;;;;4183216;28;19940;-65
2024/03/05 07:26:08;;;;;;;;;;;;;;;;;;4184044;28;20038;-66
2024/03/05 07:28:10;;;;;;;;;;;;;;;;;;4184039;28;20416;-66
2024/03/05 07:30:12;;;;;;;;;;;;;;;;;;4184093;28;20002;-66
2024/03/05 07:32:15;;;;;;;;;;;;;;;;;;4183954;28;19920;-66
2024/03/05 07:34:17;;;;;;;;;;;;;;;;;;4183213;28;20518;-66
2024/03/05 07:36:19;;;;;;;;;;;;;;;;;;4183935;28;19991;-66
2024/03/05 07:38:21;;;;;;;;;;;;;;;;;;4165697;28;20400;-66
2024/03/05 07:40:23;;;;;;;;;;;;;;;;;;4184154;28;19971;-66
2024/03/05 07:42:24;;;;;;;;;;;;;;;;;;4184322;28;20383;-66
2024/03/05 07:44:26;;;;;;;;;;;;;;;;;;4183714;28;20023;-66
2024/03/05 07:46:28;;;;;;;;;;;;;;;;;;4183850;28;20379;-66
2024/03/05 07:48:29;;;;;;;;;;;;;;;;;;4183723;28;19932;-66
2024/03/05 07:50:31;;;;;;;;;;;;;;;;;;4183935;28;19925;-66
2024/03/05 07:52:32;;;;;;;;;;;;;;;;;;4183800;28;19960;-66
2024/03/05 07:54:34;;;;;;;;;;;;;;;;;;4183705;28;19928;-66
2024/03/05 07:56:35;;;;;;;;;;;;;;;;;;4183750;28;19971;-66
2024/03/05 07:58:37;;;;;;;;;;;;;;;;;;4190020;28;19923;-66
2024/03/05 08:00:38;;;;;;;;;;;;;;;;;;4200133;28;19924;-66
2024/03/05 08:02:40;;;;;;;;;;;;;;;;;;4199936;28;19974;-66
2024/03/05 08:04:41;;;;;;;;;;;;;;;;;;4190172;28;19920;-66
2024/03/05 08:06:43;;;;;;;;;;;;;;;;;;4194853;28;19977;-66
2024/03/05 08:08:44;;;;;;;;;;;;;;;;;;4200136;28;20372;-66
2024/03/05 08:10:48;;;;;;;;;;;;;;;;;;4200213;28;19920;-66
2024/03/05 08:12:51;;;;;;;;;;;;;;;;;;4199939;28;19920;-66
2024/03/05 08:14:53;;;;;;;;;;;;;;;;;;4199879;28;19920;-66
2024/03/05 08:16:55;;;;;;;;;;;;;;;;;;4199853;28;19927;-66
2024/03/05 08:18:56;;;;;;;;;;;;;;;;;;4199821;28;20003;-66
2024/03/05 08:20:59;;;;;;;;;;;;;;;;;;4199923;28;19963;-66
2024/03/05 08:23:00;;;;;;;;;;;;;;;;;;4199705;28;19946;-66
2024/03/05 08:25:13;;;;;;;;;;;;;;;;;;4200002;28;19920;-67
2024/03/05 08:27:14;;;;;;;;;;;;;;;;;;4200036;28;19928;-66
2024/03/05 08:29:16;;;;;;;;;;;;;;;;;;4182011;28;20010;-67
2024/03/05 08:31:17;;;;;;;;;;;;;;;;;;4181794;28;19925;-66
2024/03/05 08:33:20;;;;;;;;;;;;;;;;;;4199816;28;19928;-67
2024/03/05 08:35:22;;;;;;;;;;;;;;;;;;4198303;28;19920;-66
2024/03/05 08:37:23;;;;;;;;;;;;;;;;;;4199665;28;19970;-67
2024/03/05 08:39:26;;;;;;;;;;;;;;;;;;4199893;28;19927;-66
2024/03/05 08:41:28;;;;;;;;;;;;;;;;;;4199525;28;19920;-66
2024/03/05 08:43:30;;;;;;;;;;;;;;;;;;4199623;28;19930;-66
2024/03/05 08:45:31;;;;;;;;;;;;;;;;;;4181730;28;19920;-67
2024/03/05 08:47:33;;;;;;;;;;;;;;;;;;4199772;28;19927;-66
2024/03/05 08:49:35;;;;;;;;;;;;;;;;;;4199365;28;19970;-66
2024/03/05 08:51:38;;;;;;;;;;;;;;;;;;4199304;28;19924;-67
2024/03/05 08:53:39;;;;;;;;;;;;;;;;;;4199393;28;19924;-66
2024/03/05 08:55:41;;;;;;;;;;;;;;;;;;4183183;28;19920;-67
2024/03/05 08:57:42;;;;;;;;;;;;;;;;;;4183055;28;20365;-66
2024/03/05 08:59:44;;;;;;;;;;;;;;;;;;4182944;28;19921;-67
2024/03/05 09:01:45;;;;;;;;;;;;;;;;;;4182755;28;19921;-67
2024/03/05 09:03:47;;;;;;;;;;;;;;;;;;4182815;28;19951;-67
2024/03/05 09:05:48;;;;;;;;;;;;;;;;;;4182422;28;20385;-66
2024/03/05 09:07:50;;;;;;;;;;;;;;;;;;4182733;28;19921;-67
2024/03/05 09:09:52;;;;;;;;;;;;;;;;;;4182759;28;19943;-67
2024/03/05 09:11:53;;;;;;;;;;;;;;;;;;4182401;28;19924;-66
2024/03/05 09:13:55;;;;;;;;;;;;;;;;;;4182443;28;20368;-67
2024/03/05 09:15:57;;;;;;;;;;;;;;;;;;4182430;28;19931;-66
2024/03/05 09:17:59;;;;;;;;;;;;;;;;;;4182400;28;20016;-67
2024/03/05 09:20:11;;;;;;;;;;;;;;;;;;4182553;28;19929;-67
2024/03/05 09:22:15;;;;;;;;;;;;;;;;;;4164511;28;20471;-67
2024/03/05 09:24:16;;;;;;;;;;;;;;;;;;4182422;28;19970;-67
2024/03/05 09:26:18;;;;;;;;;;;;;;;;;;4182347;28;19932;-67
2024/03/05 09:28:19;;;;;;;;;;;;;;;;;;4182446;28;19929;-67
2024/03/05 09:30:21;;;;;;;;;;;;;;;;;;4182436;28;19927;-67
2024/03/05 09:32:24;;;;;;;;;;;;;;;;;;4164337;28;19921;-67
2024/03/05 09:34:26;;;;;;;;;;;;;;;;;;4182139;28;19921;-67
2024/03/05 09:36:27;;;;;;;;;;;;;;;;;;4182396;28;19927;-67
2024/03/05 09:38:31;;;;;;;;;;;;;;;;;;4182340;28;19970;-67
2024/03/05 09:40:33;;;;;;;;;;;;;;;;;;4182277;28;20360;-67
2024/03/05 09:42:36;;;;;;;;;;;;;;;;;;4181954;28;20027;-67
2024/03/05 09:44:38;;;;;;;;;;;;;;;;;;4181776;28;20300;-67
2024/03/05 09:46:45;;;;;;;;;;;;;;;;;;4181760;28;19924;-68
2024/03/05 09:48:47;;;;;;;;;;;;;;;;;;4181936;28;19927;-67
2024/03/05 09:50:49;;;;;;;;;;;;;;;;;;4181821;28;19941;-67
2024/03/05 09:52:50;;;;;;;;;;;;;;;;;;4181910;28;19975;-68
2024/03/05 09:54:52;;;;;;;;;;;;;;;;;;4181874;28;19920;-68
2024/03/05 09:56:54;;;;;;;;;;;;;;;;;;4181679;28;19978;-67
2024/03/05 09:58:55;;;;;;;;;;;;;;;;;;4181838;28;19954;-68
2024/03/05 10:00:57;;;;;;;;;;;;;;;;;;4181775;28;19920;-68
2024/03/05 10:02:58;;;;;;;;;;;;;;;;;;4181673;28;19936;-68
2024/03/05 10:05:02;;;;;;;;;;;;;;;;;;4181468;28;20336;-67
2024/03/05 10:07:07;;;;;;;;;;;;;;;;;;4181814;28;19925;-68
2024/03/05 10:09:10;;;;;;;;;;;;;;;;;;4181615;28;19921;-68
2024/03/05 10:11:11;;;;;;;;;;;;;;;;;;4181653;28;19925;-68
2024/03/05 10:13:14;;;;;;;;;;;;;;;;;;4181444;28;19924;-68
2024/03/05 10:15:20;;;;;;;;;;;;;;;;;;4181396;28;19999;-68
2024/03/05 10:17:22;;;;;;;;;;;;;;;;;;4181718;28;19990;-68
2024/03/05 10:19:24;;;;;;;;;;;;;;;;;;4181390;28;19924;-67
2024/03/05 10:21:26;;;;;;;;;;;;;;;;;;4181381;28;20328;-68
2024/03/05 10:23:27;;;;;;;;;;;;;;;;;;4181246;28;19968;-68
2024/03/05 10:25:29;;;;;;;;;;;;;;;;;;4181282;28;19961;-68
2024/03/05 10:27:33;;;;;;;;;;;;;;;;;;4181363;28;19924;-68
2024/03/05 10:29:34;;;;;;;;;;;;;;;;;;4181270;28;19959;-68
2024/03/05 10:31:36;;;;;;;;;;;;;;;;;;4181312;28;19921;-69
2024/03/05 10:33:38;;;;;;;;;;;;;;;;;;4181451;28;20296;-68
2024/03/05 10:35:41;;;;;;;;;;;;;;;;;;4181216;28;20376;-69
2024/03/05 10:37:43;;;;;;;;;;;;;;;;;;4184495;28;20007;-68
2024/03/05 10:39:45;;;;;;;;;;;;;;;;;;4197856;28;19946;-68
2024/03/05 10:41:48;;;;;;;;;;;;;;;;;;4197829;28;19927;-68
2024/03/05 10:43:52;;;;;;;;;;;;;;;;;;4197749;28;19966;-69
2024/03/05 10:45:53;;;;;;;;;;;;;;;;;;4195483;28;20029;-68
2024/03/05 10:47:58;;;;;;;;;;;;;;;;;;4185192;28;19920;-69
2024/03/05 10:50:00;;;;;;;;;;;;;;;;;;4189580;28;19928;-68
2024/03/05 10:52:01;;;;;;;;;;;;;;;;;;4188128;28;19924;-68
2024/03/05 10:54:04;;;;;;;;;;;;;;;;;;4191357;28;19920;-69
2024/03/05 10:56:06;;;;;;;;;;;;;;;;;;4186473;28;19924;-68
2024/03/05 11:00:14;;;;;;;;;;;;;;;;;;4197797;28;19924;-68
2024/03/05 11:02:16;;;;;;;;;;;;;;;;;;4185252;28;19932;-68
2024/03/05 11:04:18;;;;;;;;;;;;;;;;;;4195410;28;20380;-68
2024/03/05 11:06:20;;;;;;;;;;;;;;;;;;4185105;28;19924;-69
2024/03/05 11:08:25;;;;;;;;;;;;;;;;;;4181075;28;19964;-68
2024/03/05 11:10:28;;;;;;;;;;;;;;;;;;4182654;28;20388;-68
2024/03/05 11:12:30;;;;;;;;;;;;;;;;;;4180622;28;19967;-68
2024/03/05 11:14:33;;;;;;;;;;;;;;;;;;4184119;28;19974;-68
2024/03/05 11:16:34;;;;;;;;;;;;;;;;;;4181812;28;19928;-67
2024/03/05 11:18:38;;;;;;;;;;;;;;;;;;4181851;28;20008;-68
2024/03/05 11:20:40;;;;;;;;;;;;;;;;;;4192291;28;19925;-68
2024/03/05 11:22:45;;;;;;;;;;;;;;;;;;4193415;28;19924;-69
2024/03/05 11:24:46;;;;;;;;;;;;;;;;;;4197221;28;19960;-68
2024/03/05 11:26:48;;;;;;;;;;;;;;;;;;4195719;28;19968;-68
2024/03/05 11:28:52;;;;;;;;;;;;;;;;;;4197328;28;19920;-68
2024/03/05 11:30:54;;;;;;;;;;;;;;;;;;4189290;28;19921;-67
2024/03/05 11:32:55;;;;;;;;;;;;;;;;;;4185569;28;19920;-68
2024/03/05 11:34:57;;;;;;;;;;;;;;;;;;4191322;28;19935;-67
2024/03/05 11:36:58;;;;;;;;;;;;;;;;;;4184114;28;19928;-68
2024/03/05 11:39:03;;;;;;;;;;;;;;;;;;4180837;28;19924;-67
2024/03/05 11:41:04;;;;;;;;;;;;;;;;;;4181737;28;19921;-68
2024/03/05 11:43:06;;;;;;;;;;;;;;;;;;4181797;28;19920;-67
2024/03/05 11:45:07;;;;;;;;;;;;;;;;;;4190882;28;19928;-67
2024/03/05 11:47:09;;;;;;;;;;;;;;;;;;4180450;28;19921;-68
2024/03/05 11:49:11;;;;;;;;;;;;;;;;;;4180522;28;20043;-68
2024/03/05 11:51:13;;;;;;;;;;;;;;;;;;4180233;28;19928;-67
2024/03/05 11:53:14;;;;;;;;;;;;;;;;;;4180291;28;19920;-68
2024/03/05 11:55:15;;;;;;;;;;;;;;;;;;4179827;28;19928;-67
2024/03/05 11:57:17;;;;;;;;;;;;;;;;;;4178597;28;20122;-68
2024/03/05 11:59:18;;;;;;;;;;;;;;;;;;4183792;28;19934;-68
2024/03/05 12:01:20;;;;;;;;;;;;;;;;;;4188058;28;19920;-67
2024/03/05 12:03:21;;;;;;;;;;;;;;;;;;4180885;28;19966;-67
2024/03/05 12:05:23;;;;;;;;;;;;;;;;;;4180405;28;19932;-67
2024/03/05 12:07:24;;;;;;;;;;;;;;;;;;4191770;28;19977;-67
2024/03/05 12:09:26;;;;;;;;;;;;;;;;;;4197670;28;19965;-67
2024/03/05 12:11:28;;;;;;;;;;;;;;;;;;4199957;28;19921;-67
2024/03/05 12:13:31;;;;;;;;;;;;;;;;;;4199191;28;19921;-67
2024/03/05 12:15:32;;;;;;;;;;;;;;;;;;4176387;28;19968;-68
2024/03/05 12:17:34;;;;;;;;;;;;;;;;;;4183308;28;20381;-68
2024/03/05 12:19:37;;;;;;;;;;;;;;;;;;4183392;28;20023;-68
2024/03/05 12:21:39;;;;;;;;;;;;;;;;;;4183196;28;19921;-68
2024/03/05 12:23:40;;;;;;;;;;;;;;;;;;4183045;28;19924;-68
2024/03/05 12:25:43;;;;;;;;;;;;;;;;;;4190449;28;19924;-67
2024/03/05 12:27:46;;;;;;;;;;;;;;;;;;4198422;28;19928;-68
2024/03/05 12:29:47;;;;;;;;;;;;;;;;;;4192196;28;20015;-67
2024/03/05 12:31:49;;;;;;;;;;;;;;;;;;4194485;28;19924;-63
2024/03/05 12:33:50;;;;;;;;;;;;;;;;;;4183368;28;19924;-63
2024/03/05 12:35:52;;;;;;;;;;;;;;;;;;4189146;28;19936;-63
2024/03/05 12:37:54;;;;;;;;;;;;;;;;;;4191593;28;19924;-64
2024/03/05 12:39:56;;;;;;;;;;;;;;;;;;4182890;28;19921;-63
2024/03/05 12:41:57;;;;;;;;;;;;;;;;;;4182981;28;19962;-63
2024/03/05 12:43:59;;;;;;;;;;;;;;;;;;4164862;28;19925;-64
2024/03/05 12:46:03;;;;;;;;;;;;;;;;;;4167140;28;20397;-62
2024/03/05 12:48:05;;;;;;;;;;;;;;;;;;4189587;28;20763;-63
2024/03/05 12:50:07;;;;;;;;;;;;;;;;;;4177934;28;20035;-63
2024/03/05 12:52:09;;;;;;;;;;;;;;;;;;4192404;28;19920;-63
2024/03/05 12:54:11;;;;;;;;;;;;;;;;;;4197405;28;19973;-63
2024/03/05 12:56:15;;;;;;;;;;;;;;;;;;4188550;28;19931;-63
2024/03/05 12:58:17;;;;;;;;;;;;;;;;;;4176682;28;20020;-63
2024/03/05 13:00:19;;;;;;;;;;;;;;;;;;4189454;28;19920;-62
2024/03/05 13:02:20;;;;;;;;;;;;;;;;;;4164983;28;19924;-63
2024/03/05 13:04:22;;;;;;;;;;;;;;;;;;4181986;28;20456;-64
2024/03/05 13:06:24;;;;;;;;;;;;;;;;;;4190376;28;20018;-63
2024/03/05 13:08:25;;;;;;;;;;;;;;;;;;4199019;28;20326;-62
2024/03/05 13:10:27;;;;;;;;;;;;;;;;;;4181202;28;19921;-63
2024/03/05 13:12:29;;;;;;;;;;;;;;;;;;4198999;28;19974;-62
2024/03/05 13:14:30;;;;;;;;;;;;;;;;;;4199019;28;19970;-63
2024/03/05 13:16:32;;;;;;;;;;;;;;;;;;4198997;28;19995;-63
2024/03/05 13:18:34;;;;;;;;;;;;;;;;;;4192479;28;19927;-63
2024/03/05 13:20:35;;;;;;;;;;;;;;;;;;4184958;28;20444;-63
2024/03/05 13:22:37;;;;;;;;;;;;;;;;;;4164386;28;20416;-63
2024/03/05 13:24:39;;;;;;;;;;;;;;;;;;4182008;28;19947;-63
2024/03/05 13:26:41;;;;;;;;;;;;;;;;;;4182289;28;20019;-63
2024/03/05 13:28:43;;;;;;;;;;;;;;;;;;4183144;28;20436;-64
2024/03/05 13:30:44;;;;;;;;;;;;;;;;;;4182151;28;19924;-63
2024/03/05 13:32:46;;;;;;;;;;;;;;;;;;4182199;28;19921;-63
2024/03/05 13:34:47;;;;;;;;;;;;;;;;;;4182122;28;19925;-64
2024/03/05 13:36:50;;;;;;;;;;;;;;;;;;4189495;28;19921;-63
2024/03/05 13:38:54;;;;;;;;;;;;;;;;;;4181756;28;20355;-64
2024/03/05 13:40:56;;;;;;;;;;;;;;;;;;4182348;28;19921;-64
2024/03/05 13:42:58;;;;;;;;;;;;;;;;;;4182332;28;19951;-63
2024/03/05 13:44:59;;;;;;;;;;;;;;;;;;4191666;28;19924;-64
2024/03/05 13:47:01;;;;;;;;;;;;;;;;;;4185101;28;19925;-65
2024/03/05 13:49:02;;;;;;;;;;;;;;;;;;4179899;28;19975;-64
2024/03/05 13:51:08;;;;;;;;;;;;;;;;;;4181405;28;20352;-64
2024/03/05 13:53:09;;;;;;;;;;;;;;;;;;4187221;28;19921;-64
2024/03/05 13:55:16;;;;;;;;;;;;;;;;;;4194276;28;19924;-63
2024/03/05 13:57:17;;;;;;;;;;;;;;;;;;4198310;28;20338;-64
2024/03/05 13:59:19;;;;;;;;;;;;;;;;;;4185358;28;19928;-64